createdAt,value
2022-10-05T09:55:49.414Z,72.98
2022-10-05T09:58:56.139Z,72.71
2022-10-05T10:01:43.903Z,75.00
2022-10-05T10:04:38.764Z,74.76
2022-10-05T10:07:39.876Z,76.37
2022-10-05T10:10:49.674Z,75.09
2022-10-05T10:13:54.813Z,74.96
2022-10-05T10:16:38.645Z,73.48
2022-10-05T10:19:27.250Z,73.94
2022-10-05T10:22:42.269Z,74.04
2022-10-05T10:25:52.970Z,75.24
2022-10-05T10:28:58.024Z,75.06
2022-10-05T10:32:00.182Z,76.65
2022-10-05T10:34:58.485Z,74.32
2022-10-05T10:38:06.018Z,75.83
2022-10-05T10:40:45.718Z,74.49
2022-10-05T10:43:42.578Z,74.75
2022-10-05T10:46:28.992Z,73.84
2022-10-05T10:49:17.374Z,74.67
2022-10-05T10:52:16.543Z,74.54
2022-10-05T10:55:30.813Z,74.69
2022-10-05T10:58:41.295Z,75.18
2022-10-05T11:01:33.075Z,73.96
2022-10-05T11:04:47.751Z,74.25
2022-10-05T11:07:46.968Z,75.21
2022-10-05T11:10:52.215Z,74.15
2022-10-05T11:14:05.704Z,73.71
2022-10-05T11:17:24.669Z,73.94
2022-10-05T11:20:21.321Z,74.86
2022-10-05T11:23:08.373Z,74.87
2022-10-05T11:26:07.064Z,74.34
2022-10-05T11:28:54.938Z,74.37
2022-10-05T11:32:06.080Z,74.30
2022-10-05T11:35:06.702Z,74.18
2022-10-05T11:38:05.502Z,75.77
2022-10-05T11:40:59.948Z,74.92
2022-10-05T11:44:09.917Z,77.07
2022-10-05T11:46:52.089Z,76.72
2022-10-05T11:49:39.030Z,77.30
2022-10-05T11:52:22.219Z,77.11
2022-10-05T11:55:18.850Z,76.71
2022-10-05T11:57:59.029Z,78.14
2022-10-05T12:00:41.839Z,78.84
2022-10-05T12:03:41.118Z,76.64
2022-10-05T12:06:52.286Z,78.58
2022-10-05T12:09:39.353Z,76.71
2022-10-05T12:12:18.987Z,78.71
2022-10-05T12:15:00.819Z,80.59
2022-10-05T12:17:42.172Z,82.47
2022-10-05T12:20:20.592Z,78.47
2022-10-05T12:23:01.079Z,79.97
2022-10-05T12:25:38.198Z,80.92
2022-10-05T12:28:18.041Z,82.91
2022-10-05T12:31:09.443Z,84.75
2022-10-05T12:33:49.893Z,85.77
2022-10-05T12:36:35.908Z,88.86
2022-10-05T12:39:23.295Z,87.55
2022-10-05T12:42:07.228Z,87.40
2022-10-05T12:45:05.800Z,88.35
2022-10-05T12:47:53.893Z,88.09
2022-10-05T12:50:33.852Z,91.99
2022-10-05T12:53:23.952Z,87.44
2022-10-05T12:56:07.866Z,88.67
2022-10-05T12:58:52.368Z,88.40
2022-10-05T13:01:36.134Z,89.60
2022-10-05T13:04:21.333Z,89.85
2022-10-05T13:07:08.482Z,93.32
2022-10-05T13:09:46.087Z,93.66
2022-10-05T13:12:27.974Z,91.16
2022-10-05T13:15:06.490Z,92.02
2022-10-05T13:17:48.989Z,90.88
2022-10-05T13:20:30.691Z,92.25
2022-10-05T13:23:10.742Z,90.81
2022-10-05T13:25:47.921Z,90.64
2022-10-05T13:28:26.145Z,93.33
2022-10-05T13:31:08.225Z,93.43
2022-10-05T13:33:59.641Z,93.82
2022-10-05T13:36:42.384Z,91.23
2022-10-05T13:39:26.404Z,91.16
2022-10-05T13:42:07.353Z,91.28
2022-10-05T13:44:47.832Z,90.65
2022-10-05T13:47:27.257Z,90.12
2022-10-05T13:50:05.912Z,94.96
2022-10-05T13:52:49.261Z,94.03
2022-10-05T13:55:32.877Z,97.20
2022-10-05T13:58:09.332Z,96.47
2022-10-05T14:00:51.802Z,96.61
2022-10-05T14:03:36.388Z,100.00
2022-10-05T14:06:16.647Z,98.75
2022-10-05T14:08:54.795Z,99.21
2022-10-05T14:11:34.905Z,98.96
2022-10-05T14:14:17.302Z,94.92
2022-10-05T14:16:56.103Z,94.51
2022-10-05T14:19:31.227Z,95.32
2022-10-05T14:22:05.679Z,95.75
2022-10-05T14:24:44.287Z,96.99
2022-10-05T14:27:29.395Z,98.41
2022-10-05T14:30:03.620Z,95.94
2022-10-05T14:32:51.367Z,100.00
2022-10-05T14:35:26.832Z,97.03
2022-10-05T14:38:02.991Z,92.70
2022-10-05T14:40:36.754Z,98.97
2022-10-05T14:43:22.848Z,97.71
2022-10-05T14:46:02.767Z,96.96
2022-10-05T14:48:46.414Z,95.05
2022-10-05T14:51:33.348Z,92.60
2022-10-05T14:54:17.277Z,91.02
2022-10-05T14:56:57.892Z,90.70
2022-10-05T14:59:48.245Z,90.71
2022-10-05T15:02:46.412Z,89.80
2022-10-05T15:05:28.158Z,90.71
2022-10-05T15:08:10.162Z,90.29
2022-10-05T15:10:46.573Z,89.34
2022-10-05T15:13:21.648Z,92.79
2022-10-05T15:15:58.144Z,92.17
2022-10-05T15:18:39.526Z,89.32
2022-10-05T15:21:32.762Z,89.88
2022-10-05T15:24:10.778Z,91.91
2022-10-05T15:26:51.954Z,90.55
2022-10-05T15:29:43.378Z,90.63
2022-10-05T15:32:30.351Z,90.06
2022-10-05T15:35:32.049Z,90.56
2022-10-05T15:38:15.524Z,89.88
2022-10-05T15:40:56.273Z,89.95
2022-10-05T15:43:29.679Z,88.86
2022-10-05T15:46:15.314Z,87.86
2022-10-05T15:48:55.754Z,86.83
2022-10-05T15:51:52.290Z,87.29
2022-10-05T15:55:00.313Z,87.08
2022-10-05T15:57:42.314Z,86.92
2022-10-05T16:00:16.339Z,86.11
2022-10-05T16:02:55.363Z,86.31
2022-10-05T16:05:58.733Z,85.28
2022-10-05T16:08:59.972Z,83.52
2022-10-05T16:11:52.978Z,84.10
2022-10-05T16:14:37.515Z,83.69
2022-10-05T16:17:27.918Z,84.07
2022-10-05T16:20:16.108Z,85.53
2022-10-05T16:22:54.803Z,85.69
2022-10-05T16:25:34.851Z,85.46
2022-10-05T16:28:20.920Z,86.05
2022-10-05T16:31:02.284Z,86.29
2022-10-05T16:33:55.917Z,87.21
2022-10-05T16:36:45.902Z,88.77
2022-10-05T16:39:25.150Z,88.41
2022-10-05T16:42:05.410Z,87.11
2022-10-05T16:44:51.944Z,86.98
2022-10-05T16:47:49.692Z,87.17
2022-10-05T16:50:26.936Z,87.52
2022-10-05T16:53:03.918Z,87.70
2022-10-05T16:55:42.138Z,88.93
2022-10-05T16:58:21.736Z,87.37
2022-10-05T17:01:12.463Z,88.80
2022-10-05T17:03:58.639Z,89.20
2022-10-05T17:07:06.917Z,89.69
2022-10-05T17:09:54.279Z,90.51
2022-10-05T17:12:44.267Z,90.68
2022-10-05T17:15:31.011Z,90.71
2022-10-05T17:18:19.676Z,89.77
2022-10-05T17:21:04.700Z,88.92
2022-10-05T17:23:51.760Z,88.29
2022-10-05T17:26:58.408Z,90.34
2022-10-05T17:29:35.227Z,90.60
2022-10-05T17:32:37.857Z,90.50
2022-10-05T17:35:22.019Z,90.85
2022-10-05T17:38:21.959Z,90.54
2022-10-05T17:41:18.704Z,91.54
2022-10-05T17:44:29.856Z,93.41
2022-10-05T17:47:05.381Z,93.05
2022-10-05T17:50:19.065Z,91.30
2022-10-05T17:53:41.161Z,90.19
2022-10-05T17:56:13.301Z,91.76
2022-10-05T17:59:08.109Z,91.97
2022-10-05T18:01:41.667Z,93.78
2022-10-05T18:04:35.888Z,93.67
2022-10-05T18:07:21.171Z,91.67
2022-10-05T18:10:30.116Z,91.04
2022-10-05T18:13:36.252Z,91.47
2022-10-05T18:16:08.971Z,91.45
2022-10-05T18:18:59.622Z,90.78
2022-10-05T18:21:39.946Z,91.61
2022-10-05T18:24:50.443Z,90.06
2022-10-05T18:27:44.138Z,92.03
2022-10-05T18:30:24.461Z,92.83
2022-10-05T18:33:29.673Z,91.73
2022-10-05T18:36:16.807Z,90.21
2022-10-05T18:38:59.171Z,90.67
2022-10-05T18:41:43.494Z,90.42
2022-10-05T18:44:42.800Z,92.70
2022-10-05T18:47:25.713Z,91.36
2022-10-05T18:50:08.369Z,93.15
2022-10-05T18:52:58.249Z,93.04
2022-10-05T18:55:38.687Z,93.39
2022-10-05T18:58:29.665Z,93.58
2022-10-05T19:01:44.770Z,92.33
2022-10-05T19:04:27.822Z,93.92
2022-10-05T19:07:15.137Z,94.35
2022-10-05T19:10:06.555Z,96.31
2022-10-05T19:12:53.783Z,96.04
2022-10-05T19:15:32.652Z,97.51
2022-10-05T19:18:40.162Z,95.49
2022-10-05T19:21:26.039Z,95.11
2022-10-05T19:24:22.464Z,94.17
2022-10-05T19:27:08.214Z,93.86
2022-10-05T19:30:03.775Z,96.10
2022-10-05T19:32:50.708Z,95.43
2022-10-05T19:35:34.025Z,95.21
2022-10-05T19:41:04.960Z,94.84
2022-10-05T19:43:56.265Z,95.84
2022-10-05T19:46:43.947Z,95.14
2022-10-05T19:49:16.281Z,96.92
2022-10-05T19:51:53.875Z,95.33
2022-10-05T19:54:31.437Z,94.82
2022-10-05T19:57:04.535Z,95.02
2022-10-05T19:59:38.812Z,96.14
2022-10-05T20:02:18.489Z,96.92
2022-10-05T20:04:51.610Z,97.18
2022-10-05T20:07:24.874Z,96.07
2022-10-05T20:10:01.026Z,94.81
2022-10-05T20:12:52.034Z,95.46
2022-10-05T20:15:43.218Z,96.93
2022-10-05T20:19:00.500Z,96.73
2022-10-05T20:21:44.759Z,96.37
2022-10-05T20:24:18.718Z,96.33
2022-10-05T20:27:16.216Z,94.32
2022-10-05T20:29:48.740Z,94.96
2022-10-05T20:32:21.530Z,95.50
2022-10-05T20:34:56.968Z,96.52
2022-10-05T20:37:29.469Z,96.71
2022-10-05T20:40:02.119Z,96.64
2022-10-05T20:42:35.623Z,97.04
2022-10-05T20:45:09.420Z,97.89
2022-10-05T20:47:41.842Z,96.60
2022-10-05T20:50:14.387Z,97.44
2022-10-05T20:52:46.802Z,97.68
2022-10-05T20:55:19.226Z,95.76
2022-10-05T20:57:53.964Z,95.26
2022-10-05T21:00:25.876Z,95.96
2022-10-05T21:02:57.842Z,95.88
2022-10-05T21:05:30.649Z,96.41
2022-10-05T21:08:03.330Z,95.47
2022-10-05T21:10:35.300Z,95.18
2022-10-05T21:13:08.508Z,94.76
2022-10-05T21:15:40.674Z,95.40
2022-10-05T21:18:13.309Z,97.35
2022-10-05T21:20:52.014Z,97.28
2022-10-05T21:23:24.376Z,98.35
2022-10-05T21:25:56.389Z,98.18
2022-10-05T21:28:30.987Z,96.36
2022-10-05T21:31:03.057Z,95.33
2022-10-05T21:33:34.863Z,96.72
2022-10-05T21:36:07.286Z,98.20
2022-10-05T21:38:39.709Z,97.10
2022-10-05T21:41:11.906Z,95.31
2022-10-05T21:43:46.699Z,96.13
2022-10-05T21:46:21.684Z,96.48
2022-10-05T21:48:54.684Z,96.69
2022-10-05T21:51:28.445Z,97.47
2022-10-05T21:54:04.732Z,97.01
2022-10-05T21:56:39.326Z,96.93
2022-10-05T21:59:15.648Z,96.58
2022-10-05T22:01:47.774Z,96.61
2022-10-05T22:04:19.741Z,96.18
2022-10-05T22:06:52.024Z,97.26
2022-10-05T22:09:24.438Z,97.13
2022-10-05T22:11:56.337Z,96.95
2022-10-05T22:14:30.797Z,97.91
2022-10-05T22:17:03.299Z,98.92
2022-10-05T22:19:35.647Z,98.36
2022-10-05T22:22:11.686Z,97.76
2022-10-05T22:24:43.680Z,99.15
2022-10-05T22:27:15.918Z,98.77
2022-10-05T22:29:50.283Z,98.95
2022-10-05T22:32:22.270Z,99.08
2022-10-05T22:34:54.616Z,98.28
2022-10-05T22:37:26.602Z,98.09
2022-10-05T22:39:59.303Z,97.28
2022-10-05T22:42:30.977Z,97.28
2022-10-05T22:45:04.751Z,98.33
2022-10-05T22:47:37.018Z,98.66
2022-10-05T22:50:09.640Z,99.15
2022-10-05T22:52:41.199Z,100.00
2022-10-05T22:55:13.915Z,100.00
2022-10-05T22:57:46.564Z,100.00
2022-10-05T23:00:27.628Z,100.00
2022-10-05T23:03:03.354Z,100.00
2022-10-05T23:05:35.596Z,100.00
2022-10-05T23:08:08.464Z,100.00
2022-10-05T23:10:40.705Z,100.00
2022-10-05T23:13:12.708Z,100.00
2022-10-05T23:15:46.580Z,100.00
2022-10-05T23:18:18.981Z,100.00
2022-10-05T23:20:57.374Z,100.00
2022-10-05T23:23:29.943Z,100.00
2022-10-05T23:26:05.667Z,100.00
2022-10-05T23:28:38.005Z,100.00
2022-10-05T23:31:12.242Z,100.00
2022-10-05T23:33:44.433Z,100.00
2022-10-05T23:36:18.192Z,100.00
2022-10-05T23:38:50.161Z,100.00
2022-10-05T23:41:23.319Z,100.00
2022-10-05T23:43:56.160Z,100.00
2022-10-05T23:46:30.497Z,100.00
2022-10-05T23:49:02.510Z,100.00
2022-10-05T23:51:34.963Z,100.00
2022-10-05T23:54:07.690Z,100.00
2022-10-05T23:56:40.432Z,100.00
2022-10-05T23:59:12.497Z,100.00
